sensor_id;sensor_type;location;lat;lon;timestamp;P1;durP1;ratioP1;P2;durP2;ratioP2
51489;SDS011;57752;53.574;9.736;2022-12-07T00:04:51;45.13;;;20.92;;
51489;SDS011;57752;53.574;9.736;2022-12-07T00:09:52;48.58;;;23.15;;
51489;SDS011;57752;53.574;9.736;2022-12-07T00:14:52;49.88;;;22.95;;
51489;SDS011;57752;53.574;9.736;2022-12-07T00:19:52;46.17;;;22.10;;
51489;SDS011;57752;53.574;9.736;2022-12-07T00:24:52;46.40;;;20.35;;
51489;SDS011;57752;53.574;9.736;2022-12-07T00:29:52;45.63;;;20.55;;
51489;SDS011;57752;53.574;9.736;2022-12-07T00:34:52;51.85;;;22.92;;
51489;SDS011;57752;53.574;9.736;2022-12-07T00:39:52;61.17;;;24.02;;
51489;SDS011;57752;53.574;9.736;2022-12-07T00:44:53;49.35;;;21.38;;
51489;SDS011;57752;53.574;9.736;2022-12-07T00:49:53;46.38;;;21.17;;
51489;SDS011;57752;53.574;9.736;2022-12-07T00:54:53;40.75;;;17.77;;
51489;SDS011;57752;53.574;9.736;2022-12-07T00:59:53;49.05;;;20.05;;
51489;SDS011;57752;53.574;9.736;2022-12-07T01:04:57;45.90;;;19.60;;
51489;SDS011;57752;53.574;9.736;2022-12-07T01:09:57;45.00;;;17.88;;
51489;SDS011;57752;53.574;9.736;2022-12-07T01:14:57;37.92;;;17.15;;
51489;SDS011;57752;53.574;9.736;2022-12-07T01:19:57;44.83;;;17.98;;
51489;SDS011;57752;53.574;9.736;2022-12-07T01:24:58;41.25;;;17.45;;
51489;SDS011;57752;53.574;9.736;2022-12-07T01:29:58;54.30;;;19.75;;
51489;SDS011;57752;53.574;9.736;2022-12-07T01:34:58;52.30;;;18.60;;
51489;SDS011;57752;53.574;9.736;2022-12-07T01:39:58;51.67;;;18.90;;
51489;SDS011;57752;53.574;9.736;2022-12-07T01:50:17;46.25;;;17.73;;
51489;SDS011;57752;53.574;9.736;2022-12-07T01:55:17;42.55;;;15.85;;
51489;SDS011;57752;53.574;9.736;2022-12-07T02:00:18;38.95;;;15.95;;
51489;SDS011;57752;53.574;9.736;2022-12-07T02:05:18;37.88;;;14.55;;
51489;SDS011;57752;53.574;9.736;2022-12-07T02:10:26;39.90;;;14.38;;
51489;SDS011;57752;53.574;9.736;2022-12-07T02:15:34;42.63;;;14.57;;
51489;SDS011;57752;53.574;9.736;2022-12-07T02:20:42;40.90;;;14.27;;
51489;SDS011;57752;53.574;9.736;2022-12-07T02:25:58;68.95;;;30.42;;
51489;SDS011;57752;53.574;9.736;2022-12-07T02:31:03;40.27;;;15.80;;
51489;SDS011;57752;53.574;9.736;2022-12-07T02:36:06;37.40;;;11.68;;
51489;SDS011;57752;53.574;9.736;2022-12-07T02:41:18;31.23;;;12.25;;
51489;SDS011;57752;53.574;9.736;2022-12-07T02:46:25;30.30;;;10.85;;
51489;SDS011;57752;53.574;9.736;2022-12-07T02:51:29;29.23;;;9.63;;
51489;SDS011;57752;53.574;9.736;2022-12-07T03:01:46;19.70;;;7.22;;
51489;SDS011;57752;53.574;9.736;2022-12-07T03:12:14;14.90;;;6.18;;
51489;SDS011;57752;53.574;9.736;2022-12-07T03:17:18;22.23;;;7.07;;
51489;SDS011;57752;53.574;9.736;2022-12-07T03:22:19;20.15;;;6.25;;
51489;SDS011;57752;53.574;9.736;2022-12-07T03:27:31;29.23;;;15.10;;
51489;SDS011;57752;53.574;9.736;2022-12-07T03:32:37;17.63;;;5.88;;
51489;SDS011;57752;53.574;9.736;2022-12-07T03:37:50;20.17;;;9.32;;
51489;SDS011;57752;53.574;9.736;2022-12-07T03:42:52;16.00;;;5.67;;
51489;SDS011;57752;53.574;9.736;2022-12-07T03:47:54;17.15;;;6.93;;
51489;SDS011;57752;53.574;9.736;2022-12-07T03:53:00;16.33;;;4.90;;
51489;SDS011;57752;53.574;9.736;2022-12-07T03:58:09;19.83;;;4.75;;
51489;SDS011;57752;53.574;9.736;2022-12-07T04:03:09;19.20;;;5.03;;
51489;SDS011;57752;53.574;9.736;2022-12-07T04:08:10;14.82;;;4.30;;
51489;SDS011;57752;53.574;9.736;2022-12-07T04:13:10;18.38;;;4.60;;
51489;SDS011;57752;53.574;9.736;2022-12-07T04:18:10;15.60;;;5.25;;
51489;SDS011;57752;53.574;9.736;2022-12-07T04:23:10;16.25;;;5.40;;
51489;SDS011;57752;53.574;9.736;2022-12-07T04:28:10;15.80;;;5.97;;
51489;SDS011;57752;53.574;9.736;2022-12-07T04:33:10;15.68;;;5.30;;
51489;SDS011;57752;53.574;9.736;2022-12-07T04:38:10;21.75;;;7.97;;
51489;SDS011;57752;53.574;9.736;2022-12-07T04:43:11;18.73;;;8.93;;
51489;SDS011;57752;53.574;9.736;2022-12-07T04:48:11;18.42;;;7.72;;
51489;SDS011;57752;53.574;9.736;2022-12-07T04:53:11;22.98;;;7.50;;
51489;SDS011;57752;53.574;9.736;2022-12-07T04:58:11;23.63;;;6.00;;
51489;SDS011;57752;53.574;9.736;2022-12-07T05:03:12;15.85;;;5.20;;
51489;SDS011;57752;53.574;9.736;2022-12-07T05:08:12;15.23;;;5.22;;
51489;SDS011;57752;53.574;9.736;2022-12-07T05:13:12;14.45;;;5.15;;
51489;SDS011;57752;53.574;9.736;2022-12-07T05:18:12;14.18;;;4.85;;
51489;SDS011;57752;53.574;9.736;2022-12-07T05:23:12;17.83;;;5.35;;
51489;SDS011;57752;53.574;9.736;2022-12-07T05:28:12;19.42;;;7.05;;
51489;SDS011;57752;53.574;9.736;2022-12-07T05:33:13;13.13;;;4.80;;
51489;SDS011;57752;53.574;9.736;2022-12-07T05:38:13;16.80;;;5.40;;
51489;SDS011;57752;53.574;9.736;2022-12-07T05:43:13;17.42;;;6.45;;
51489;SDS011;57752;53.574;9.736;2022-12-07T05:48:13;17.10;;;5.35;;
51489;SDS011;57752;53.574;9.736;2022-12-07T05:53:13;14.95;;;5.82;;
51489;SDS011;57752;53.574;9.736;2022-12-07T05:58:13;15.85;;;5.63;;
51489;SDS011;57752;53.574;9.736;2022-12-07T06:03:32;16.33;;;6.40;;
51489;SDS011;57752;53.574;9.736;2022-12-07T06:08:32;16.52;;;5.00;;
51489;SDS011;57752;53.574;9.736;2022-12-07T06:13:33;16.23;;;5.32;;
51489;SDS011;57752;53.574;9.736;2022-12-07T06:18:33;13.40;;;4.75;;
51489;SDS011;57752;53.574;9.736;2022-12-07T06:23:33;21.83;;;5.10;;
51489;SDS011;57752;53.574;9.736;2022-12-07T06:28:33;16.40;;;4.20;;
51489;SDS011;57752;53.574;9.736;2022-12-07T06:33:33;13.65;;;4.13;;
51489;SDS011;57752;53.574;9.736;2022-12-07T06:38:33;14.52;;;4.07;;
51489;SDS011;57752;53.574;9.736;2022-12-07T06:43:33;13.93;;;4.20;;
51489;SDS011;57752;53.574;9.736;2022-12-07T06:48:34;15.80;;;4.25;;
51489;SDS011;57752;53.574;9.736;2022-12-07T06:53:34;15.88;;;4.03;;
51489;SDS011;57752;53.574;9.736;2022-12-07T06:58:34;16.27;;;4.00;;
51489;SDS011;57752;53.574;9.736;2022-12-07T07:03:34;14.65;;;3.97;;
51489;SDS011;57752;53.574;9.736;2022-12-07T07:08:35;13.43;;;3.58;;
51489;SDS011;57752;53.574;9.736;2022-12-07T07:13:35;12.55;;;3.45;;
51489;SDS011;57752;53.574;9.736;2022-12-07T07:18:35;15.35;;;3.90;;
51489;SDS011;57752;53.574;9.736;2022-12-07T07:23:36;16.55;;;3.70;;
51489;SDS011;57752;53.574;9.736;2022-12-07T07:28:36;15.93;;;4.07;;
51489;SDS011;57752;53.574;9.736;2022-12-07T07:33:36;29.08;;;4.88;;
51489;SDS011;57752;53.574;9.736;2022-12-07T07:38:36;12.63;;;3.67;;
51489;SDS011;57752;53.574;9.736;2022-12-07T07:43:36;12.70;;;5.68;;
51489;SDS011;57752;53.574;9.736;2022-12-07T07:48:37;11.15;;;3.20;;
51489;SDS011;57752;53.574;9.736;2022-12-07T07:53:37;14.40;;;3.45;;
51489;SDS011;57752;53.574;9.736;2022-12-07T07:58:37;10.57;;;3.55;;
51489;SDS011;57752;53.574;9.736;2022-12-07T08:03:39;13.40;;;3.47;;
51489;SDS011;57752;53.574;9.736;2022-12-07T08:08:39;17.65;;;3.72;;
51489;SDS011;57752;53.574;9.736;2022-12-07T08:13:39;13.13;;;3.65;;
51489;SDS011;57752;53.574;9.736;2022-12-07T08:18:39;16.10;;;4.13;;
51489;SDS011;57752;53.574;9.736;2022-12-07T08:23:40;15.98;;;4.13;;
51489;SDS011;57752;53.574;9.736;2022-12-07T08:28:40;13.02;;;4.22;;
51489;SDS011;57752;53.574;9.736;2022-12-07T08:33:41;13.23;;;4.40;;
51489;SDS011;57752;53.574;9.736;2022-12-07T08:38:41;16.25;;;4.50;;
51489;SDS011;57752;53.574;9.736;2022-12-07T08:43:42;16.65;;;4.13;;
51489;SDS011;57752;53.574;9.736;2022-12-07T08:48:44;15.20;;;4.65;;
51489;SDS011;57752;53.574;9.736;2022-12-07T08:53:45;13.38;;;4.40;;
51489;SDS011;57752;53.574;9.736;2022-12-07T08:58:45;11.55;;;4.22;;
51489;SDS011;57752;53.574;9.736;2022-12-07T09:03:46;12.38;;;3.92;;
51489;SDS011;57752;53.574;9.736;2022-12-07T09:08:47;14.88;;;3.75;;
51489;SDS011;57752;53.574;9.736;2022-12-07T09:13:47;22.73;;;4.32;;
51489;SDS011;57752;53.574;9.736;2022-12-07T09:18:47;16.35;;;4.05;;
51489;SDS011;57752;53.574;9.736;2022-12-07T09:23:48;17.30;;;5.22;;
51489;SDS011;57752;53.574;9.736;2022-12-07T09:28:48;16.20;;;4.57;;
51489;SDS011;57752;53.574;9.736;2022-12-07T09:33:53;14.05;;;3.42;;
51489;SDS011;57752;53.574;9.736;2022-12-07T09:38:53;14.73;;;4.10;;
51489;SDS011;57752;53.574;9.736;2022-12-07T09:43:54;12.52;;;2.97;;
51489;SDS011;57752;53.574;9.736;2022-12-07T09:48:58;11.98;;;2.97;;
51489;SDS011;57752;53.574;9.736;2022-12-07T09:53:58;13.32;;;3.10;;
51489;SDS011;57752;53.574;9.736;2022-12-07T09:59:00;8.93;;;2.30;;
51489;SDS011;57752;53.574;9.736;2022-12-07T10:04:12;10.57;;;2.50;;
51489;SDS011;57752;53.574;9.736;2022-12-07T10:09:15;10.35;;;2.78;;
51489;SDS011;57752;53.574;9.736;2022-12-07T10:14:16;12.00;;;3.45;;
51489;SDS011;57752;53.574;9.736;2022-12-07T10:19:17;9.30;;;2.95;;
51489;SDS011;57752;53.574;9.736;2022-12-07T10:24:18;9.67;;;2.70;;
51489;SDS011;57752;53.574;9.736;2022-12-07T10:29:23;12.75;;;3.38;;
51489;SDS011;57752;53.574;9.736;2022-12-07T10:34:25;11.93;;;2.53;;
51489;SDS011;57752;53.574;9.736;2022-12-07T10:39:25;10.77;;;2.70;;
51489;SDS011;57752;53.574;9.736;2022-12-07T10:44:29;9.15;;;3.67;;
51489;SDS011;57752;53.574;9.736;2022-12-07T10:54:33;15.40;;;3.40;;
51489;SDS011;57752;53.574;9.736;2022-12-07T10:59:42;11.15;;;2.72;;
51489;SDS011;57752;53.574;9.736;2022-12-07T11:04:55;14.10;;;3.63;;
51489;SDS011;57752;53.574;9.736;2022-12-07T11:10:05;13.88;;;3.13;;
51489;SDS011;57752;53.574;9.736;2022-12-07T11:15:13;14.02;;;3.15;;
51489;SDS011;57752;53.574;9.736;2022-12-07T11:25:46;13.25;;;3.13;;
51489;SDS011;57752;53.574;9.736;2022-12-07T11:30:57;13.10;;;2.90;;
51489;SDS011;57752;53.574;9.736;2022-12-07T11:41:03;11.93;;;2.65;;
51489;SDS011;57752;53.574;9.736;2022-12-07T11:46:15;13.77;;;3.83;;
51489;SDS011;57752;53.574;9.736;2022-12-07T11:51:15;11.93;;;2.88;;
51489;SDS011;57752;53.574;9.736;2022-12-07T11:56:19;14.03;;;2.87;;
51489;SDS011;57752;53.574;9.736;2022-12-07T12:01:25;13.43;;;2.70;;
51489;SDS011;57752;53.574;9.736;2022-12-07T12:06:27;9.32;;;2.80;;
51489;SDS011;57752;53.574;9.736;2022-12-07T12:16:44;13.82;;;2.83;;
51489;SDS011;57752;53.574;9.736;2022-12-07T12:21:48;11.80;;;2.90;;
51489;SDS011;57752;53.574;9.736;2022-12-07T12:27:02;15.80;;;2.97;;
51489;SDS011;57752;53.574;9.736;2022-12-07T12:32:20;14.05;;;3.22;;
51489;SDS011;57752;53.574;9.736;2022-12-07T12:37:38;10.35;;;2.85;;
51489;SDS011;57752;53.574;9.736;2022-12-07T12:42:45;13.82;;;3.25;;
51489;SDS011;57752;53.574;9.736;2022-12-07T12:52:48;12.68;;;2.50;;
51489;SDS011;57752;53.574;9.736;2022-12-07T12:58:22;14.35;;;3.45;;
51489;SDS011;57752;53.574;9.736;2022-12-07T13:03:29;12.60;;;3.28;;
51489;SDS011;57752;53.574;9.736;2022-12-07T13:08:30;14.20;;;2.88;;
51489;SDS011;57752;53.574;9.736;2022-12-07T13:13:30;12.52;;;3.10;;
51489;SDS011;57752;53.574;9.736;2022-12-07T13:23:37;10.75;;;3.53;;
51489;SDS011;57752;53.574;9.736;2022-12-07T13:28:39;15.57;;;3.00;;
51489;SDS011;57752;53.574;9.736;2022-12-07T13:33:43;13.77;;;3.50;;
51489;SDS011;57752;53.574;9.736;2022-12-07T13:44:05;11.15;;;2.83;;
51489;SDS011;57752;53.574;9.736;2022-12-07T13:49:14;9.85;;;2.75;;
51489;SDS011;57752;53.574;9.736;2022-12-07T13:54:15;14.32;;;2.50;;
51489;SDS011;57752;53.574;9.736;2022-12-07T13:59:20;11.85;;;2.40;;
51489;SDS011;57752;53.574;9.736;2022-12-07T14:09:27;10.30;;;2.20;;
51489;SDS011;57752;53.574;9.736;2022-12-07T14:14:29;12.07;;;2.30;;
51489;SDS011;57752;53.574;9.736;2022-12-07T14:19:43;11.82;;;2.65;;
51489;SDS011;57752;53.574;9.736;2022-12-07T14:24:44;9.48;;;2.10;;
51489;SDS011;57752;53.574;9.736;2022-12-07T14:29:44;9.27;;;2.17;;
51489;SDS011;57752;53.574;9.736;2022-12-07T14:34:55;12.00;;;2.60;;
51489;SDS011;57752;53.574;9.736;2022-12-07T14:39:55;12.50;;;2.90;;
51489;SDS011;57752;53.574;9.736;2022-12-07T14:44:56;11.15;;;2.53;;
51489;SDS011;57752;53.574;9.736;2022-12-07T14:49:56;8.52;;;2.75;;
51489;SDS011;57752;53.574;9.736;2022-12-07T14:54:56;8.40;;;2.20;;
51489;SDS011;57752;53.574;9.736;2022-12-07T14:59:56;7.30;;;2.20;;
51489;SDS011;57752;53.574;9.736;2022-12-07T15:04:56;9.60;;;2.35;;
51489;SDS011;57752;53.574;9.736;2022-12-07T15:09:56;12.02;;;2.88;;
51489;SDS011;57752;53.574;9.736;2022-12-07T15:14:57;11.75;;;2.72;;
51489;SDS011;57752;53.574;9.736;2022-12-07T15:19:57;15.52;;;2.83;;
51489;SDS011;57752;53.574;9.736;2022-12-07T15:24:57;11.23;;;2.63;;
51489;SDS011;57752;53.574;9.736;2022-12-07T15:29:57;10.88;;;3.15;;
51489;SDS011;57752;53.574;9.736;2022-12-07T15:34:58;13.75;;;3.20;;
51489;SDS011;57752;53.574;9.736;2022-12-07T15:39:58;20.13;;;4.70;;
51489;SDS011;57752;53.574;9.736;2022-12-07T15:44:58;18.77;;;4.15;;
51489;SDS011;57752;53.574;9.736;2022-12-07T15:50:05;10.75;;;3.45;;
51489;SDS011;57752;53.574;9.736;2022-12-07T15:55:05;17.08;;;4.25;;
51489;SDS011;57752;53.574;9.736;2022-12-07T16:00:07;11.85;;;2.78;;
51489;SDS011;57752;53.574;9.736;2022-12-07T16:05:08;13.63;;;3.50;;
51489;SDS011;57752;53.574;9.736;2022-12-07T16:10:08;13.55;;;3.13;;
51489;SDS011;57752;53.574;9.736;2022-12-07T16:15:09;9.88;;;2.60;;
51489;SDS011;57752;53.574;9.736;2022-12-07T16:20:09;11.18;;;2.67;;
51489;SDS011;57752;53.574;9.736;2022-12-07T16:25:09;9.70;;;2.85;;
51489;SDS011;57752;53.574;9.736;2022-12-07T16:30:11;13.77;;;3.65;;
51489;SDS011;57752;53.574;9.736;2022-12-07T16:35:12;10.87;;;2.60;;
51489;SDS011;57752;53.574;9.736;2022-12-07T16:40:12;13.52;;;2.90;;
51489;SDS011;57752;53.574;9.736;2022-12-07T16:45:12;10.88;;;2.90;;
51489;SDS011;57752;53.574;9.736;2022-12-07T16:50:13;9.80;;;3.30;;
51489;SDS011;57752;53.574;9.736;2022-12-07T16:55:13;12.68;;;4.05;;
51489;SDS011;57752;53.574;9.736;2022-12-07T17:00:15;13.60;;;3.67;;
51489;SDS011;57752;53.574;9.736;2022-12-07T17:05:15;16.70;;;4.18;;
51489;SDS011;57752;53.574;9.736;2022-12-07T17:10:15;11.63;;;4.18;;
51489;SDS011;57752;53.574;9.736;2022-12-07T17:15:15;16.27;;;4.93;;
51489;SDS011;57752;53.574;9.736;2022-12-07T17:20:22;18.00;;;6.22;;
51489;SDS011;57752;53.574;9.736;2022-12-07T17:25:22;17.40;;;6.10;;
51489;SDS011;57752;53.574;9.736;2022-12-07T17:30:22;17.08;;;5.88;;
51489;SDS011;57752;53.574;9.736;2022-12-07T17:35:22;16.98;;;5.80;;
51489;SDS011;57752;53.574;9.736;2022-12-07T17:40:23;17.85;;;7.22;;
51489;SDS011;57752;53.574;9.736;2022-12-07T17:45:23;16.85;;;7.43;;
51489;SDS011;57752;53.574;9.736;2022-12-07T17:50:23;20.55;;;8.25;;
51489;SDS011;57752;53.574;9.736;2022-12-07T17:55:43;17.52;;;8.43;;
51489;SDS011;57752;53.574;9.736;2022-12-07T18:00:43;15.77;;;7.28;;
51489;SDS011;57752;53.574;9.736;2022-12-07T18:05:43;18.02;;;6.72;;
51489;SDS011;57752;53.574;9.736;2022-12-07T18:10:44;17.27;;;7.30;;
51489;SDS011;57752;53.574;9.736;2022-12-07T18:15:44;15.35;;;6.97;;
51489;SDS011;57752;53.574;9.736;2022-12-07T18:20:44;17.02;;;7.38;;
51489;SDS011;57752;53.574;9.736;2022-12-07T18:25:48;16.90;;;8.60;;
51489;SDS011;57752;53.574;9.736;2022-12-07T18:30:48;16.50;;;7.15;;
51489;SDS011;57752;53.574;9.736;2022-12-07T18:35:51;20.48;;;8.40;;
51489;SDS011;57752;53.574;9.736;2022-12-07T18:40:52;19.73;;;9.20;;
51489;SDS011;57752;53.574;9.736;2022-12-07T18:45:52;23.77;;;10.52;;
51489;SDS011;57752;53.574;9.736;2022-12-07T18:50:59;17.88;;;8.75;;
51489;SDS011;57752;53.574;9.736;2022-12-07T18:56:01;20.92;;;9.73;;
51489;SDS011;57752;53.574;9.736;2022-12-07T19:01:01;27.17;;;12.48;;
51489;SDS011;57752;53.574;9.736;2022-12-07T19:06:05;22.92;;;9.38;;
51489;SDS011;57752;53.574;9.736;2022-12-07T19:11:05;27.33;;;10.52;;
51489;SDS011;57752;53.574;9.736;2022-12-07T19:16:25;19.17;;;9.23;;
51489;SDS011;57752;53.574;9.736;2022-12-07T19:21:25;19.05;;;7.55;;
51489;SDS011;57752;53.574;9.736;2022-12-07T19:26:26;17.00;;;6.30;;
51489;SDS011;57752;53.574;9.736;2022-12-07T19:31:26;14.18;;;5.13;;
51489;SDS011;57752;53.574;9.736;2022-12-07T19:36:27;16.88;;;5.82;;
51489;SDS011;57752;53.574;9.736;2022-12-07T19:41:27;14.88;;;5.60;;
51489;SDS011;57752;53.574;9.736;2022-12-07T19:46:33;16.30;;;6.80;;
51489;SDS011;57752;53.574;9.736;2022-12-07T19:51:33;20.02;;;6.50;;
51489;SDS011;57752;53.574;9.736;2022-12-07T19:56:33;21.73;;;5.90;;
51489;SDS011;57752;53.574;9.736;2022-12-07T20:01:33;18.52;;;7.15;;
51489;SDS011;57752;53.574;9.736;2022-12-07T20:06:35;20.60;;;7.10;;
51489;SDS011;57752;53.574;9.736;2022-12-07T20:11:36;18.77;;;6.93;;
51489;SDS011;57752;53.574;9.736;2022-12-07T20:16:55;22.55;;;8.18;;
51489;SDS011;57752;53.574;9.736;2022-12-07T20:21:55;19.58;;;7.38;;
51489;SDS011;57752;53.574;9.736;2022-12-07T20:26:55;20.88;;;8.40;;
51489;SDS011;57752;53.574;9.736;2022-12-07T20:31:55;23.83;;;10.93;;
51489;SDS011;57752;53.574;9.736;2022-12-07T20:36:56;31.95;;;17.40;;
51489;SDS011;57752;53.574;9.736;2022-12-07T20:41:57;26.67;;;11.50;;
51489;SDS011;57752;53.574;9.736;2022-12-07T20:47:16;19.38;;;9.35;;
51489;SDS011;57752;53.574;9.736;2022-12-07T20:52:16;20.27;;;7.57;;
51489;SDS011;57752;53.574;9.736;2022-12-07T20:57:19;17.98;;;8.20;;
51489;SDS011;57752;53.574;9.736;2022-12-07T21:02:19;19.58;;;7.28;;
51489;SDS011;57752;53.574;9.736;2022-12-07T21:07:19;20.45;;;8.13;;
51489;SDS011;57752;53.574;9.736;2022-12-07T21:12:20;20.88;;;7.95;;
51489;SDS011;57752;53.574;9.736;2022-12-07T21:17:20;18.38;;;7.13;;
51489;SDS011;57752;53.574;9.736;2022-12-07T21:22:20;15.73;;;7.07;;
51489;SDS011;57752;53.574;9.736;2022-12-07T21:27:20;19.05;;;7.07;;
51489;SDS011;57752;53.574;9.736;2022-12-07T21:32:20;15.95;;;7.53;;
51489;SDS011;57752;53.574;9.736;2022-12-07T21:37:20;18.67;;;8.32;;
51489;SDS011;57752;53.574;9.736;2022-12-07T21:42:21;22.80;;;9.10;;
51489;SDS011;57752;53.574;9.736;2022-12-07T21:47:21;19.73;;;8.80;;
51489;SDS011;57752;53.574;9.736;2022-12-07T21:52:21;22.95;;;9.68;;
51489;SDS011;57752;53.574;9.736;2022-12-07T21:57:21;24.23;;;10.60;;
51489;SDS011;57752;53.574;9.736;2022-12-07T22:02:21;22.23;;;9.93;;
51489;SDS011;57752;53.574;9.736;2022-12-07T22:07:22;25.30;;;11.32;;
51489;SDS011;57752;53.574;9.736;2022-12-07T22:12:22;28.55;;;11.82;;
51489;SDS011;57752;53.574;9.736;2022-12-07T22:17:22;28.33;;;12.85;;
51489;SDS011;57752;53.574;9.736;2022-12-07T22:22:22;30.70;;;13.55;;
51489;SDS011;57752;53.574;9.736;2022-12-07T22:27:23;32.33;;;14.73;;
51489;SDS011;57752;53.574;9.736;2022-12-07T22:32:23;33.75;;;14.50;;
51489;SDS011;57752;53.574;9.736;2022-12-07T22:37:23;36.03;;;17.25;;
51489;SDS011;57752;53.574;9.736;2022-12-07T22:42:23;40.75;;;16.55;;
51489;SDS011;57752;53.574;9.736;2022-12-07T22:47:24;46.13;;;18.85;;
51489;SDS011;57752;53.574;9.736;2022-12-07T22:52:24;52.50;;;20.63;;
51489;SDS011;57752;53.574;9.736;2022-12-07T22:57:24;54.58;;;20.92;;
51489;SDS011;57752;53.574;9.736;2022-12-07T23:02:24;57.22;;;22.38;;
51489;SDS011;57752;53.574;9.736;2022-12-07T23:07:24;54.15;;;21.35;;
51489;SDS011;57752;53.574;9.736;2022-12-07T23:12:24;60.70;;;22.77;;
51489;SDS011;57752;53.574;9.736;2022-12-07T23:17:43;54.45;;;21.42;;
51489;SDS011;57752;53.574;9.736;2022-12-07T23:22:44;60.95;;;23.65;;
51489;SDS011;57752;53.574;9.736;2022-12-07T23:27:44;60.70;;;25.88;;
51489;SDS011;57752;53.574;9.736;2022-12-07T23:32:44;68.07;;;25.73;;
51489;SDS011;57752;53.574;9.736;2022-12-07T23:37:44;70.30;;;26.75;;
51489;SDS011;57752;53.574;9.736;2022-12-07T23:42:44;66.03;;;26.67;;
51489;SDS011;57752;53.574;9.736;2022-12-07T23:47:44;58.95;;;25.10;;
51489;SDS011;57752;53.574;9.736;2022-12-07T23:52:44;61.05;;;24.75;;
51489;SDS011;57752;53.574;9.736;2022-12-07T23:57:45;64.28;;;25.45;;
